Ironton, Minnesota
Current Conditions -  °F | °C
As of 4:53 AM on Wednesday 26 Nov 2014 (Local Time) from KBRD Reporting Station
Light Snow Light Snow  
Wind Chill:   Ceiling: 4300
Heat Index: 18°   Visibility: 5mi
Dew Point: 14°   Wind: 8mph
Humidity: 84%   Direction: 20°NNE
Pressure: 30.09"   Gusts: NA
Location:  46.48°N, 93.98°W
Report Text: KBRD 261053Z AUTO 02007KT 5SM -SN BR OVC043 M08/M10 A3009 RMK AO2 SLP215 P0000 T10781100
Loading
Personal Weather Stations






























Interactive Weather Map New forecast layout! Learn more

10-Day Weather Forecast

Advertisements
Track Severe Weather on mobile